sensor_id;sensor_type;location;lat;lon;timestamp;pressure;altitude;pressure_sealevel;temperature;humidity
31483;BME280;18103;52.246;8.052;2022-08-19T00:01:52;100000.50;;;19.27;84.82
31483;BME280;18103;52.246;8.052;2022-08-19T00:04:24;100001.56;;;19.26;84.80
31483;BME280;18103;52.246;8.052;2022-08-19T00:06:50;100010.09;;;19.22;84.76
31483;BME280;18103;52.246;8.052;2022-08-19T00:09:17;100005.97;;;19.20;85.38
31483;BME280;18103;52.246;8.052;2022-08-19T00:11:47;100005.19;;;19.19;85.16
31483;BME280;18103;52.246;8.052;2022-08-19T00:14:15;99993.56;;;19.19;84.75
31483;BME280;18103;52.246;8.052;2022-08-19T00:16:42;100008.47;;;19.21;85.13
31483;BME280;18103;52.246;8.052;2022-08-19T00:19:08;100000.47;;;19.15;84.83
31483;BME280;18103;52.246;8.052;2022-08-19T00:21:34;99999.03;;;19.12;85.40
31483;BME280;18103;52.246;8.052;2022-08-19T00:24:04;100005.25;;;19.13;85.33
31483;BME280;18103;52.246;8.052;2022-08-19T00:26:30;99999.50;;;19.09;84.54
31483;BME280;18103;52.246;8.052;2022-08-19T00:28:55;100003.25;;;19.08;85.52
31483;BME280;18103;52.246;8.052;2022-08-19T00:31:21;99999.72;;;19.08;85.63
31483;BME280;18103;52.246;8.052;2022-08-19T00:33:46;100009.50;;;19.09;85.09
31483;BME280;18103;52.246;8.052;2022-08-19T00:36:13;100010.66;;;19.01;85.43
31483;BME280;18103;52.246;8.052;2022-08-19T00:38:39;100011.31;;;18.97;85.96
31483;BME280;18103;52.246;8.052;2022-08-19T00:41:09;100010.97;;;18.93;85.99
31483;BME280;18103;52.246;8.052;2022-08-19T00:43:35;100008.50;;;18.92;85.56
31483;BME280;18103;52.246;8.052;2022-08-19T00:46:04;100009.09;;;18.94;85.66
31483;BME280;18103;52.246;8.052;2022-08-19T00:48:31;100007.50;;;18.86;86.14
31483;BME280;18103;52.246;8.052;2022-08-19T00:50:57;99995.66;;;18.87;86.39
31483;BME280;18103;52.246;8.052;2022-08-19T00:53:26;99985.53;;;18.82;86.49
31483;BME280;18103;52.246;8.052;2022-08-19T00:55:54;99995.53;;;18.82;86.18
31483;BME280;18103;52.246;8.052;2022-08-19T00:58:24;99994.47;;;18.83;86.48
31483;BME280;18103;52.246;8.052;2022-08-19T01:00:52;99995.06;;;18.85;86.08
31483;BME280;18103;52.246;8.052;2022-08-19T01:03:19;99991.63;;;18.78;86.73
31483;BME280;18103;52.246;8.052;2022-08-19T01:05:47;99987.88;;;18.79;86.21
31483;BME280;18103;52.246;8.052;2022-08-19T01:08:15;99979.16;;;18.77;86.15
31483;BME280;18103;52.246;8.052;2022-08-19T01:10:56;99978.59;;;18.75;86.15
31483;BME280;18103;52.246;8.052;2022-08-19T01:13:25;99973.41;;;18.73;86.27
31483;BME280;18103;52.246;8.052;2022-08-19T01:16:02;99967.19;;;18.73;86.00
31483;BME280;18103;52.246;8.052;2022-08-19T01:18:28;99969.75;;;18.68;86.19
31483;BME280;18103;52.246;8.052;2022-08-19T01:20:58;99975.00;;;18.63;86.67
31483;BME280;18103;52.246;8.052;2022-08-19T01:23:25;99969.25;;;18.59;87.27
31483;BME280;18103;52.246;8.052;2022-08-19T01:26:10;99969.66;;;18.56;87.05
31483;BME280;18103;52.246;8.052;2022-08-19T01:28:37;99957.44;;;18.54;87.00
31483;BME280;18103;52.246;8.052;2022-08-19T01:31:04;99952.94;;;18.47;87.45
31483;BME280;18103;52.246;8.052;2022-08-19T01:33:29;99962.69;;;18.48;87.04
31483;BME280;18103;52.246;8.052;2022-08-19T01:36:05;99964.09;;;18.51;86.35
31483;BME280;18103;52.246;8.052;2022-08-19T01:38:30;99956.25;;;18.50;86.70
31483;BME280;18103;52.246;8.052;2022-08-19T01:40:56;99953.59;;;18.43;87.22
31483;BME280;18103;52.246;8.052;2022-08-19T01:43:22;99965.31;;;18.37;87.58
31483;BME280;18103;52.246;8.052;2022-08-19T01:45:53;99972.47;;;18.31;87.81
31483;BME280;18103;52.246;8.052;2022-08-19T01:48:19;99971.84;;;18.29;87.51
31483;BME280;18103;52.246;8.052;2022-08-19T01:50:44;99966.06;;;18.26;87.19
31483;BME280;18103;52.246;8.052;2022-08-19T01:53:11;99957.00;;;18.20;87.29
31483;BME280;18103;52.246;8.052;2022-08-19T01:55:39;99964.28;;;18.20;87.14
31483;BME280;18103;52.246;8.052;2022-08-19T01:58:06;99950.34;;;18.23;86.80
31483;BME280;18103;52.246;8.052;2022-08-19T02:00:34;99944.88;;;18.29;86.94
31483;BME280;18103;52.246;8.052;2022-08-19T02:03:00;99945.09;;;18.28;86.61
31483;BME280;18103;52.246;8.052;2022-08-19T02:05:26;99959.41;;;18.28;86.33
31483;BME280;18103;52.246;8.052;2022-08-19T02:07:55;99952.81;;;18.24;86.32
31483;BME280;18103;52.246;8.052;2022-08-19T02:10:21;99954.22;;;18.27;85.78
31483;BME280;18103;52.246;8.052;2022-08-19T02:12:48;99941.13;;;18.12;86.69
31483;BME280;18103;52.246;8.052;2022-08-19T02:15:14;99937.50;;;18.18;86.62
31483;BME280;18103;52.246;8.052;2022-08-19T02:17:40;99935.28;;;18.15;86.53
31483;BME280;18103;52.246;8.052;2022-08-19T02:20:06;99933.84;;;18.13;86.88
31483;BME280;18103;52.246;8.052;2022-08-19T02:22:34;99925.06;;;18.17;86.77
31483;BME280;18103;52.246;8.052;2022-08-19T02:25:00;99931.59;;;18.09;88.22
31483;BME280;18103;52.246;8.052;2022-08-19T02:27:26;99937.22;;;18.08;87.52
31483;BME280;18103;52.246;8.052;2022-08-19T02:29:51;99934.69;;;18.13;87.34
31483;BME280;18103;52.246;8.052;2022-08-19T02:32:18;99911.66;;;18.10;87.55
31483;BME280;18103;52.246;8.052;2022-08-19T02:34:47;99906.47;;;18.09;88.11
31483;BME280;18103;52.246;8.052;2022-08-19T02:37:13;99916.84;;;18.12;87.97
31483;BME280;18103;52.246;8.052;2022-08-19T02:39:57;99914.44;;;18.04;88.27
31483;BME280;18103;52.246;8.052;2022-08-19T02:42:23;99927.09;;;18.03;88.21
31483;BME280;18103;52.246;8.052;2022-08-19T02:44:48;99916.63;;;17.95;88.78
31483;BME280;18103;52.246;8.052;2022-08-19T02:47:14;99919.97;;;17.91;88.69
31483;BME280;18103;52.246;8.052;2022-08-19T02:49:40;99926.44;;;17.90;88.74
31483;BME280;18103;52.246;8.052;2022-08-19T02:52:05;99932.88;;;17.89;88.72
31483;BME280;18103;52.246;8.052;2022-08-19T02:54:34;99915.03;;;17.88;88.39
31483;BME280;18103;52.246;8.052;2022-08-19T02:56:59;99928.31;;;17.89;88.24
31483;BME280;18103;52.246;8.052;2022-08-19T02:59:25;99928.97;;;17.85;88.65
31483;BME280;18103;52.246;8.052;2022-08-19T03:01:51;99927.78;;;17.81;88.74
31483;BME280;18103;52.246;8.052;2022-08-19T03:04:17;99924.63;;;17.84;88.39
31483;BME280;18103;52.246;8.052;2022-08-19T03:06:45;99920.88;;;17.85;88.15
31483;BME280;18103;52.246;8.052;2022-08-19T03:09:12;99914.44;;;17.86;88.52
31483;BME280;18103;52.246;8.052;2022-08-19T03:11:38;99920.94;;;17.78;88.83
31483;BME280;18103;52.246;8.052;2022-08-19T03:14:07;99909.19;;;17.73;88.87
31483;BME280;18103;52.246;8.052;2022-08-19T03:16:42;99906.13;;;17.69;89.07
31483;BME280;18103;52.246;8.052;2022-08-19T03:19:08;99903.63;;;17.67;89.01
31483;BME280;18103;52.246;8.052;2022-08-19T03:21:34;99901.97;;;17.66;89.27
31483;BME280;18103;52.246;8.052;2022-08-19T03:24:02;99907.84;;;17.63;89.54
31483;BME280;18103;52.246;8.052;2022-08-19T03:26:28;99915.28;;;17.61;89.23
31483;BME280;18103;52.246;8.052;2022-08-19T03:28:54;99921.53;;;17.62;89.14
31483;BME280;18103;52.246;8.052;2022-08-19T03:31:22;99916.97;;;17.62;88.85
31483;BME280;18103;52.246;8.052;2022-08-19T03:33:48;99922.38;;;17.62;88.84
31483;BME280;18103;52.246;8.052;2022-08-19T03:36:23;99922.50;;;17.67;88.68
31483;BME280;18103;52.246;8.052;2022-08-19T03:38:52;99930.38;;;17.69;88.16
31483;BME280;18103;52.246;8.052;2022-08-19T03:41:22;99931.00;;;17.71;88.03
31483;BME280;18103;52.246;8.052;2022-08-19T03:43:47;99943.03;;;17.68;87.78
31483;BME280;18103;52.246;8.052;2022-08-19T03:46:16;99938.69;;;17.67;88.36
31483;BME280;18103;52.246;8.052;2022-08-19T03:48:43;99950.97;;;17.63;88.59
31483;BME280;18103;52.246;8.052;2022-08-19T03:51:41;99942.69;;;17.58;89.34
31483;BME280;18103;52.246;8.052;2022-08-19T03:54:09;99946.81;;;17.61;89.46
31483;BME280;18103;52.246;8.052;2022-08-19T03:56:36;99944.94;;;17.61;88.78
31483;BME280;18103;52.246;8.052;2022-08-19T03:59:04;99936.66;;;17.63;88.24
31483;BME280;18103;52.246;8.052;2022-08-19T04:01:30;99935.38;;;17.65;88.72
31483;BME280;18103;52.246;8.052;2022-08-19T04:03:57;99939.13;;;17.64;88.96
31483;BME280;18103;52.246;8.052;2022-08-19T04:06:26;99941.84;;;17.58;89.54
31483;BME280;18103;52.246;8.052;2022-08-19T04:08:54;99941.03;;;17.57;89.43
31483;BME280;18103;52.246;8.052;2022-08-19T04:11:23;99943.13;;;17.55;89.64
31483;BME280;18103;52.246;8.052;2022-08-19T04:13:52;99948.53;;;17.55;89.89
31483;BME280;18103;52.246;8.052;2022-08-19T04:16:19;99942.69;;;17.58;89.16
31483;BME280;18103;52.246;8.052;2022-08-19T04:18:48;99938.94;;;17.59;88.81
31483;BME280;18103;52.246;8.052;2022-08-19T04:21:20;99941.84;;;17.58;89.49
31483;BME280;18103;52.246;8.052;2022-08-19T04:23:46;99945.22;;;17.53;89.52
31483;BME280;18103;52.246;8.052;2022-08-19T04:26:17;99942.97;;;17.50;89.70
31483;BME280;18103;52.246;8.052;2022-08-19T04:28:43;99953.59;;;17.45;89.55
31483;BME280;18103;52.246;8.052;2022-08-19T04:31:17;99948.97;;;17.52;88.60
31483;BME280;18103;52.246;8.052;2022-08-19T04:33:42;99957.66;;;17.54;89.31
31483;BME280;18103;52.246;8.052;2022-08-19T04:36:16;99960.41;;;17.48;89.84
31483;BME280;18103;52.246;8.052;2022-08-19T04:38:42;99959.56;;;17.47;89.88
31483;BME280;18103;52.246;8.052;2022-08-19T04:41:08;99958.53;;;17.48;89.28
31483;BME280;18103;52.246;8.052;2022-08-19T04:43:52;99965.56;;;17.49;89.41
31483;BME280;18103;52.246;8.052;2022-08-19T04:46:17;99968.06;;;17.51;89.64
31483;BME280;18103;52.246;8.052;2022-08-19T04:48:44;99969.91;;;17.50;89.92
31483;BME280;18103;52.246;8.052;2022-08-19T04:51:12;99973.22;;;17.52;89.48
31483;BME280;18103;52.246;8.052;2022-08-19T04:53:45;99971.41;;;17.46;89.42
31483;BME280;18103;52.246;8.052;2022-08-19T04:56:15;99973.16;;;17.59;89.17
31483;BME280;18103;52.246;8.052;2022-08-19T04:58:42;99970.09;;;17.55;89.74
31483;BME280;18103;52.246;8.052;2022-08-19T05:01:09;99959.75;;;17.52;89.86
31483;BME280;18103;52.246;8.052;2022-08-19T05:03:37;99962.16;;;17.60;89.29
31483;BME280;18103;52.246;8.052;2022-08-19T05:06:10;99969.22;;;17.61;89.58
31483;BME280;18103;52.246;8.052;2022-08-19T05:08:38;99968.81;;;17.58;89.12
31483;BME280;18103;52.246;8.052;2022-08-19T05:11:18;99961.75;;;17.63;89.94
31483;BME280;18103;52.246;8.052;2022-08-19T05:13:48;99950.97;;;17.63;89.62
31483;BME280;18103;52.246;8.052;2022-08-19T05:16:16;99954.88;;;17.67;89.57
31483;BME280;18103;52.246;8.052;2022-08-19T05:18:41;99961.31;;;17.66;89.70
31483;BME280;18103;52.246;8.052;2022-08-19T05:21:27;99957.94;;;17.71;90.22
31483;BME280;18103;52.246;8.052;2022-08-19T05:24:11;99956.53;;;17.68;89.62
31483;BME280;18103;52.246;8.052;2022-08-19T05:26:45;99965.81;;;17.73;89.39
31483;BME280;18103;52.246;8.052;2022-08-19T05:29:13;99966.41;;;17.75;89.53
31483;BME280;18103;52.246;8.052;2022-08-19T05:31:39;99975.31;;;17.75;88.62
31483;BME280;18103;52.246;8.052;2022-08-19T05:34:05;99965.59;;;17.74;88.02
31483;BME280;18103;52.246;8.052;2022-08-19T05:36:34;99970.31;;;17.79;89.20
31483;BME280;18103;52.246;8.052;2022-08-19T05:39:02;99965.69;;;17.86;89.14
31483;BME280;18103;52.246;8.052;2022-08-19T05:41:29;99958.19;;;17.88;88.77
31483;BME280;18103;52.246;8.052;2022-08-19T05:44:02;99954.75;;;17.81;88.62
31483;BME280;18103;52.246;8.052;2022-08-19T05:46:31;99958.63;;;17.85;88.92
31483;BME280;18103;52.246;8.052;2022-08-19T05:48:56;99962.09;;;17.92;88.17
31483;BME280;18103;52.246;8.052;2022-08-19T05:51:34;99958.94;;;17.95;88.75
31483;BME280;18103;52.246;8.052;2022-08-19T05:54:01;99965.50;;;18.05;88.41
31483;BME280;18103;52.246;8.052;2022-08-19T05:56:28;99968.09;;;18.12;88.07
31483;BME280;18103;52.246;8.052;2022-08-19T05:58:55;99974.84;;;18.21;87.73
31483;BME280;18103;52.246;8.052;2022-08-19T06:01:20;99967.50;;;18.28;87.50
31483;BME280;18103;52.246;8.052;2022-08-19T06:03:46;99966.75;;;18.39;87.76
31483;BME280;18103;52.246;8.052;2022-08-19T06:06:14;99970.56;;;18.50;88.00
31483;BME280;18103;52.246;8.052;2022-08-19T06:08:40;99967.19;;;18.55;88.01
31483;BME280;18103;52.246;8.052;2022-08-19T06:11:20;99964.81;;;18.65;87.84
31483;BME280;18103;52.246;8.052;2022-08-19T06:13:47;99965.91;;;18.75;87.74
31483;BME280;18103;52.246;8.052;2022-08-19T06:16:14;99960.03;;;18.78;87.72
31483;BME280;18103;52.246;8.052;2022-08-19T06:18:50;99961.47;;;18.81;87.16
31483;BME280;18103;52.246;8.052;2022-08-19T06:21:23;99947.06;;;18.69;87.66
31483;BME280;18103;52.246;8.052;2022-08-19T06:23:50;99952.53;;;18.80;87.52
31483;BME280;18103;52.246;8.052;2022-08-19T06:26:17;99942.94;;;18.96;87.13
31483;BME280;18103;52.246;8.052;2022-08-19T06:28:43;99949.28;;;18.90;86.90
31483;BME280;18103;52.246;8.052;2022-08-19T06:31:30;99947.63;;;18.89;87.12
31483;BME280;18103;52.246;8.052;2022-08-19T06:33:58;99945.78;;;19.01;86.83
31483;BME280;18103;52.246;8.052;2022-08-19T06:36:28;99943.03;;;19.19;86.05
31483;BME280;18103;52.246;8.052;2022-08-19T06:38:57;99936.34;;;19.34;86.41
31483;BME280;18103;52.246;8.052;2022-08-19T06:41:24;99944.44;;;19.34;86.12
31483;BME280;18103;52.246;8.052;2022-08-19T06:43:57;99945.03;;;19.36;85.86
31483;BME280;18103;52.246;8.052;2022-08-19T06:46:23;99942.81;;;19.44;85.65
31483;BME280;18103;52.246;8.052;2022-08-19T06:48:49;99950.84;;;19.63;85.85
31483;BME280;18103;52.246;8.052;2022-08-19T06:51:16;99946.72;;;19.83;85.10
31483;BME280;18103;52.246;8.052;2022-08-19T06:53:45;99952.97;;;19.95;84.87
31483;BME280;18103;52.246;8.052;2022-08-19T06:56:13;99948.25;;;19.91;84.47
31483;BME280;18103;52.246;8.052;2022-08-19T06:58:39;99948.09;;;20.21;84.06
31483;BME280;18103;52.246;8.052;2022-08-19T07:01:05;99954.66;;;20.48;83.21
31483;BME280;18103;52.246;8.052;2022-08-19T07:03:33;99958.13;;;20.60;83.15
31483;BME280;18103;52.246;8.052;2022-08-19T07:06:04;99956.78;;;20.75;82.82
31483;BME280;18103;52.246;8.052;2022-08-19T07:08:30;99959.78;;;20.61;81.99
31483;BME280;18103;52.246;8.052;2022-08-19T07:10:56;99957.69;;;20.80;82.04
31483;BME280;18103;52.246;8.052;2022-08-19T07:13:22;99963.97;;;20.97;81.64
31483;BME280;18103;52.246;8.052;2022-08-19T07:15:48;99959.81;;;21.06;80.82
31483;BME280;18103;52.246;8.052;2022-08-19T07:18:16;99961.44;;;21.36;81.14
31483;BME280;18103;52.246;8.052;2022-08-19T07:20:42;99982.31;;;21.19;79.70
31483;BME280;18103;52.246;8.052;2022-08-19T07:23:09;99987.16;;;21.50;79.07
31483;BME280;18103;52.246;8.052;2022-08-19T07:25:36;99984.09;;;21.46;78.48
31483;BME280;18103;52.246;8.052;2022-08-19T07:28:02;99984.84;;;21.59;78.44
31483;BME280;18103;52.246;8.052;2022-08-19T07:30:27;99981.81;;;21.55;79.01
31483;BME280;18103;52.246;8.052;2022-08-19T07:32:53;99984.28;;;21.57;78.37
31483;BME280;18103;52.246;8.052;2022-08-19T07:35:18;99994.88;;;21.75;78.67
31483;BME280;18103;52.246;8.052;2022-08-19T07:37:47;99990.94;;;21.99;77.64
31483;BME280;18103;52.246;8.052;2022-08-19T07:40:13;99984.09;;;21.80;77.95
31483;BME280;18103;52.246;8.052;2022-08-19T07:42:39;99986.38;;;21.88;78.09
31483;BME280;18103;52.246;8.052;2022-08-19T07:45:05;99989.03;;;21.83;77.77
31483;BME280;18103;52.246;8.052;2022-08-19T07:47:31;99990.34;;;21.97;77.04
31483;BME280;18103;52.246;8.052;2022-08-19T07:49:57;99997.34;;;22.10;76.74
31483;BME280;18103;52.246;8.052;2022-08-19T07:52:22;99998.75;;;22.12;75.39
31483;BME280;18103;52.246;8.052;2022-08-19T07:54:48;100008.81;;;22.55;75.79
31483;BME280;18103;52.246;8.052;2022-08-19T07:57:18;100005.94;;;22.67;74.27
31483;BME280;18103;52.246;8.052;2022-08-19T07:59:44;100003.53;;;22.49;75.67
31483;BME280;18103;52.246;8.052;2022-08-19T08:02:10;100014.81;;;22.57;75.04
31483;BME280;18103;52.246;8.052;2022-08-19T08:04:35;100014.19;;;22.72;74.38
31483;BME280;18103;52.246;8.052;2022-08-19T08:07:19;100008.56;;;22.79;74.26
31483;BME280;18103;52.246;8.052;2022-08-19T08:10:05;100012.16;;;22.84;73.20
31483;BME280;18103;52.246;8.052;2022-08-19T08:12:35;100019.47;;;23.06;72.91
31483;BME280;18103;52.246;8.052;2022-08-19T08:15:12;100011.97;;;22.69;72.97
31483;BME280;18103;52.246;8.052;2022-08-19T08:17:41;100015.97;;;23.10;72.27
31483;BME280;18103;52.246;8.052;2022-08-19T08:20:07;100032.38;;;22.93;71.95
31483;BME280;18103;52.246;8.052;2022-08-19T08:22:33;100033.00;;;23.01;70.83
31483;BME280;18103;52.246;8.052;2022-08-19T08:25:20;100028.81;;;22.88;71.45
31483;BME280;18103;52.246;8.052;2022-08-19T08:27:46;100035.75;;;22.79;72.20
31483;BME280;18103;52.246;8.052;2022-08-19T08:30:15;100026.28;;;22.81;71.19
31483;BME280;18103;52.246;8.052;2022-08-19T08:32:41;100044.16;;;22.99;70.78
31483;BME280;18103;52.246;8.052;2022-08-19T08:35:09;100045.25;;;23.25;70.22
31483;BME280;18103;52.246;8.052;2022-08-19T08:37:35;100042.91;;;23.33;69.13
31483;BME280;18103;52.246;8.052;2022-08-19T08:40:09;100047.28;;;23.13;70.35
31483;BME280;18103;52.246;8.052;2022-08-19T08:42:48;100045.53;;;23.28;70.10
31483;BME280;18103;52.246;8.052;2022-08-19T08:45:18;100044.31;;;23.41;70.22
31483;BME280;18103;52.246;8.052;2022-08-19T08:47:47;100041.47;;;23.26;69.99
31483;BME280;18103;52.246;8.052;2022-08-19T08:50:18;100041.13;;;23.22;70.04
31483;BME280;18103;52.246;8.052;2022-08-19T08:52:47;100039.72;;;23.15;69.00
31483;BME280;18103;52.246;8.052;2022-08-19T08:55:26;100041.75;;;23.03;68.20
31483;BME280;18103;52.246;8.052;2022-08-19T08:57:57;100040.53;;;23.42;68.21
31483;BME280;18103;52.246;8.052;2022-08-19T09:00:32;100040.66;;;23.52;67.20
31483;BME280;18103;52.246;8.052;2022-08-19T09:02:58;100039.50;;;23.48;67.77
31483;BME280;18103;52.246;8.052;2022-08-19T09:05:36;100040.81;;;23.19;68.31
31483;BME280;18103;52.246;8.052;2022-08-19T09:08:06;100039.09;;;23.35;67.28
31483;BME280;18103;52.246;8.052;2022-08-19T09:10:44;100046.13;;;23.57;67.08
31483;BME280;18103;52.246;8.052;2022-08-19T09:16:01;100044.47;;;23.88;66.11
31483;BME280;18103;52.246;8.052;2022-08-19T09:19:00;100038.88;;;24.05;66.62
31483;BME280;18103;52.246;8.052;2022-08-19T09:21:26;100046.78;;;24.06;65.47
31483;BME280;18103;52.246;8.052;2022-08-19T09:23:52;100045.94;;;24.01;64.63
31483;BME280;18103;52.246;8.052;2022-08-19T09:26:23;100040.50;;;24.06;66.16
31483;BME280;18103;52.246;8.052;2022-08-19T09:28:51;100042.59;;;24.31;65.33
31483;BME280;18103;52.246;8.052;2022-08-19T09:31:22;100041.25;;;24.33;65.08
31483;BME280;18103;52.246;8.052;2022-08-19T09:33:50;100047.41;;;23.82;64.15
31483;BME280;18103;52.246;8.052;2022-08-19T09:36:20;100054.38;;;23.99;64.34
31483;BME280;18103;52.246;8.052;2022-08-19T09:38:47;100047.28;;;23.98;64.24
31483;BME280;18103;52.246;8.052;2022-08-19T09:41:16;100047.59;;;24.07;64.66
31483;BME280;18103;52.246;8.052;2022-08-19T09:43:45;100045.56;;;24.24;64.16
31483;BME280;18103;52.246;8.052;2022-08-19T09:46:12;100043.72;;;23.98;64.38
31483;BME280;18103;52.246;8.052;2022-08-19T09:48:39;100044.31;;;24.05;63.29
31483;BME280;18103;52.246;8.052;2022-08-19T09:51:06;100040.66;;;24.21;64.04
31483;BME280;18103;52.246;8.052;2022-08-19T09:53:33;100046.25;;;24.47;63.20
31483;BME280;18103;52.246;8.052;2022-08-19T09:55:59;100042.47;;;24.53;60.59
31483;BME280;18103;52.246;8.052;2022-08-19T09:58:24;100036.38;;;24.40;59.85
31483;BME280;18103;52.246;8.052;2022-08-19T10:00:56;100035.47;;;24.72;59.77
31483;BME280;18103;52.246;8.052;2022-08-19T10:03:22;100035.47;;;24.77;60.09
31483;BME280;18103;52.246;8.052;2022-08-19T10:05:48;100048.06;;;24.88;60.60
31483;BME280;18103;52.246;8.052;2022-08-19T10:08:16;100039.13;;;25.03;59.71
31483;BME280;18103;52.246;8.052;2022-08-19T10:10:42;100035.81;;;24.91;59.71
31483;BME280;18103;52.246;8.052;2022-08-19T10:13:11;100043.78;;;25.02;59.55
31483;BME280;18103;52.246;8.052;2022-08-19T10:15:36;100038.28;;;24.92;58.58
31483;BME280;18103;52.246;8.052;2022-08-19T10:18:05;100048.66;;;24.95;57.06
31483;BME280;18103;52.246;8.052;2022-08-19T10:20:30;100037.75;;;24.95;57.75
31483;BME280;18103;52.246;8.052;2022-08-19T10:22:56;100036.47;;;25.43;57.94
31483;BME280;18103;52.246;8.052;2022-08-19T10:25:24;100038.41;;;25.58;57.37
31483;BME280;18103;52.246;8.052;2022-08-19T10:27:51;100050.47;;;25.67;57.16
31483;BME280;18103;52.246;8.052;2022-08-19T10:30:16;100042.78;;;25.54;56.17
31483;BME280;18103;52.246;8.052;2022-08-19T10:32:43;100037.34;;;25.79;56.09
31483;BME280;18103;52.246;8.052;2022-08-19T10:35:08;100025.59;;;25.89;55.80
31483;BME280;18103;52.246;8.052;2022-08-19T10:37:36;100018.75;;;26.02;54.76
31483;BME280;18103;52.246;8.052;2022-08-19T10:40:04;100020.91;;;26.35;55.83
31483;BME280;18103;52.246;8.052;2022-08-19T10:42:31;100028.28;;;26.04;52.73
31483;BME280;18103;52.246;8.052;2022-08-19T10:44:57;100029.09;;;26.25;52.54
31483;BME280;18103;52.246;8.052;2022-08-19T10:47:22;100019.22;;;26.39;51.97
31483;BME280;18103;52.246;8.052;2022-08-19T10:49:54;100034.78;;;26.49;52.36
31483;BME280;18103;52.246;8.052;2022-08-19T10:52:43;100020.81;;;26.60;53.90
31483;BME280;18103;52.246;8.052;2022-08-19T10:55:08;100025.78;;;26.43;53.06
31483;BME280;18103;52.246;8.052;2022-08-19T10:57:52;100028.44;;;26.68;52.33
31483;BME280;18103;52.246;8.052;2022-08-19T11:00:19;100026.81;;;26.57;52.85
31483;BME280;18103;52.246;8.052;2022-08-19T11:02:45;100018.59;;;26.67;53.02
31483;BME280;18103;52.246;8.052;2022-08-19T11:05:14;100017.06;;;26.31;52.58
31483;BME280;18103;52.246;8.052;2022-08-19T11:07:40;100020.47;;;26.77;53.03
31483;BME280;18103;52.246;8.052;2022-08-19T11:10:07;100019.91;;;26.80;51.98
31483;BME280;18103;52.246;8.052;2022-08-19T11:12:33;100020.13;;;26.94;51.49
31483;BME280;18103;52.246;8.052;2022-08-19T11:15:01;100022.22;;;27.12;52.02
31483;BME280;18103;52.246;8.052;2022-08-19T11:17:27;100022.38;;;27.26;51.87
31483;BME280;18103;52.246;8.052;2022-08-19T11:19:52;100017.59;;;27.47;50.11
31483;BME280;18103;52.246;8.052;2022-08-19T11:22:18;100017.97;;;27.69;49.17
31483;BME280;18103;52.246;8.052;2022-08-19T11:24:43;100017.88;;;27.84;48.51
31483;BME280;18103;52.246;8.052;2022-08-19T11:27:09;100013.50;;;27.83;48.38
31483;BME280;18103;52.246;8.052;2022-08-19T11:29:37;100007.03;;;27.98;48.45
31483;BME280;18103;52.246;8.052;2022-08-19T11:32:08;100008.06;;;28.31;48.80
31483;BME280;18103;52.246;8.052;2022-08-19T11:34:35;100015.50;;;28.54;47.64
31483;BME280;18103;52.246;8.052;2022-08-19T11:37:02;100005.22;;;28.41;46.75
31483;BME280;18103;52.246;8.052;2022-08-19T11:39:33;100005.00;;;28.61;46.69
31483;BME280;18103;52.246;8.052;2022-08-19T11:42:00;100001.50;;;28.74;45.88
31483;BME280;18103;52.246;8.052;2022-08-19T11:44:26;100004.72;;;28.81;46.54
31483;BME280;18103;52.246;8.052;2022-08-19T11:46:56;99998.56;;;28.71;47.00
31483;BME280;18103;52.246;8.052;2022-08-19T11:49:22;99995.56;;;28.67;45.20
31483;BME280;18103;52.246;8.052;2022-08-19T11:51:50;99994.84;;;28.62;46.48
31483;BME280;18103;52.246;8.052;2022-08-19T11:54:16;99995.53;;;28.91;46.12
31483;BME280;18103;52.246;8.052;2022-08-19T11:56:43;99992.91;;;29.05;45.62
31483;BME280;18103;52.246;8.052;2022-08-19T11:59:09;99983.91;;;28.99;45.11
31483;BME280;18103;52.246;8.052;2022-08-19T12:01:35;99988.88;;;29.16;45.74
31483;BME280;18103;52.246;8.052;2022-08-19T12:04:01;99981.75;;;29.15;46.60
31483;BME280;18103;52.246;8.052;2022-08-19T12:06:29;99985.56;;;29.38;46.78
31483;BME280;18103;52.246;8.052;2022-08-19T12:08:56;99999.59;;;29.69;44.64
31483;BME280;18103;52.246;8.052;2022-08-19T12:11:23;100006.84;;;30.24;42.48
31483;BME280;18103;52.246;8.052;2022-08-19T12:13:49;99992.59;;;30.09;44.05
31483;BME280;18103;52.246;8.052;2022-08-19T12:16:18;99990.97;;;29.89;43.62
31483;BME280;18103;52.246;8.052;2022-08-19T12:18:44;99994.50;;;30.08;43.77
31483;BME280;18103;52.246;8.052;2022-08-19T12:21:12;100001.03;;;30.39;41.42
31483;BME280;18103;52.246;8.052;2022-08-19T12:23:39;99987.69;;;30.47;41.35
31483;BME280;18103;52.246;8.052;2022-08-19T12:26:04;99989.44;;;30.70;41.46
31483;BME280;18103;52.246;8.052;2022-08-19T12:28:30;99991.84;;;30.03;41.94
31483;BME280;18103;52.246;8.052;2022-08-19T12:30:58;99986.72;;;29.83;42.62
31483;BME280;18103;52.246;8.052;2022-08-19T12:33:24;99984.25;;;30.55;41.65
31483;BME280;18103;52.246;8.052;2022-08-19T12:35:52;99980.88;;;30.58;41.13
31483;BME280;18103;52.246;8.052;2022-08-19T12:38:18;99980.06;;;30.44;41.96
31483;BME280;18103;52.246;8.052;2022-08-19T12:40:47;99973.28;;;30.91;40.99
31483;BME280;18103;52.246;8.052;2022-08-19T12:43:14;99972.72;;;31.16;40.76
31483;BME280;18103;52.246;8.052;2022-08-19T12:45:41;99976.84;;;31.27;40.32
31483;BME280;18103;52.246;8.052;2022-08-19T12:48:07;99968.75;;;31.08;40.52
31483;BME280;18103;52.246;8.052;2022-08-19T12:50:32;99958.50;;;31.23;39.42
31483;BME280;18103;52.246;8.052;2022-08-19T12:52:58;99964.19;;;30.90;39.96
31483;BME280;18103;52.246;8.052;2022-08-19T12:55:23;99969.59;;;30.95;38.99
31483;BME280;18103;52.246;8.052;2022-08-19T12:57:50;99969.13;;;31.16;40.24
31483;BME280;18103;52.246;8.052;2022-08-19T13:00:18;99972.78;;;31.25;40.13
31483;BME280;18103;52.246;8.052;2022-08-19T13:02:48;99970.66;;;31.44;39.75
31483;BME280;18103;52.246;8.052;2022-08-19T13:05:18;99967.41;;;30.70;40.04
31483;BME280;18103;52.246;8.052;2022-08-19T13:07:46;99973.13;;;30.60;40.10